sensor_id;sensor_type;location;lat;lon;timestamp;pressure;altitude;pressure_sealevel;temperature;humidity
66273;BME280;58450;52.150;4.466;2023-03-02T00:01:46;102600.84;;;2.81;100.00
66273;BME280;58450;52.150;4.466;2023-03-02T00:04:18;102604.38;;;2.82;100.00
66273;BME280;58450;52.150;4.466;2023-03-02T00:06:49;102602.53;;;2.83;100.00
66273;BME280;58450;52.150;4.466;2023-03-02T00:09:22;102599.13;;;2.80;100.00
66273;BME280;58450;52.150;4.466;2023-03-02T00:11:50;102590.31;;;2.80;100.00
66273;BME280;58450;52.150;4.466;2023-03-02T00:14:18;102597.41;;;2.79;100.00
66273;BME280;58450;52.150;4.466;2023-03-02T00:16:45;102595.63;;;2.80;100.00
66273;BME280;58450;52.150;4.466;2023-03-02T00:19:13;102591.44;;;2.76;100.00
66273;BME280;58450;52.150;4.466;2023-03-02T00:21:40;102578.81;;;2.79;100.00
66273;BME280;58450;52.150;4.466;2023-03-02T00:24:08;102574.44;;;2.78;100.00
66273;BME280;58450;52.150;4.466;2023-03-02T00:26:37;102578.91;;;2.78;100.00
66273;BME280;58450;52.150;4.466;2023-03-02T00:29:04;102586.97;;;2.76;100.00
66273;BME280;58450;52.150;4.466;2023-03-02T00:31:32;102575.66;;;2.73;100.00
66273;BME280;58450;52.150;4.466;2023-03-02T00:34:00;102568.72;;;2.70;100.00
66273;BME280;58450;52.150;4.466;2023-03-02T00:36:27;102578.50;;;2.70;100.00
66273;BME280;58450;52.150;4.466;2023-03-02T00:38:55;102574.22;;;2.67;100.00
66273;BME280;58450;52.150;4.466;2023-03-02T00:41:23;102572.63;;;2.64;100.00
66273;BME280;58450;52.150;4.466;2023-03-02T00:43:52;102568.44;;;2.60;100.00
66273;BME280;58450;52.150;4.466;2023-03-02T00:46:20;102572.97;;;2.58;100.00
66273;BME280;58450;52.150;4.466;2023-03-02T00:48:50;102567.84;;;2.55;100.00
66273;BME280;58450;52.150;4.466;2023-03-02T00:51:18;102572.31;;;2.55;100.00
66273;BME280;58450;52.150;4.466;2023-03-02T00:53:46;102582.19;;;2.53;100.00
66273;BME280;58450;52.150;4.466;2023-03-02T00:56:13;102572.50;;;2.51;100.00
66273;BME280;58450;52.150;4.466;2023-03-02T00:58:41;102568.03;;;2.52;100.00
66273;BME280;58450;52.150;4.466;2023-03-02T01:01:11;102566.44;;;2.49;100.00
66273;BME280;58450;52.150;4.466;2023-03-02T01:03:39;102563.00;;;2.47;100.00
66273;BME280;58450;52.150;4.466;2023-03-02T01:06:13;102566.50;;;2.48;100.00
66273;BME280;58450;52.150;4.466;2023-03-02T01:08:42;102566.25;;;2.53;100.00
66273;BME280;58450;52.150;4.466;2023-03-02T01:11:14;102568.13;;;2.50;100.00
66273;BME280;58450;52.150;4.466;2023-03-02T01:13:42;102567.19;;;2.51;100.00
66273;BME280;58450;52.150;4.466;2023-03-02T01:16:12;102568.03;;;2.52;100.00
66273;BME280;58450;52.150;4.466;2023-03-02T01:18:40;102568.72;;;2.56;100.00
66273;BME280;58450;52.150;4.466;2023-03-02T01:21:10;102576.69;;;2.56;100.00
66273;BME280;58450;52.150;4.466;2023-03-02T01:23:40;102574.81;;;2.58;100.00
66273;BME280;58450;52.150;4.466;2023-03-02T01:26:08;102576.50;;;2.59;100.00
66273;BME280;58450;52.150;4.466;2023-03-02T01:28:36;102578.97;;;2.62;100.00
66273;BME280;58450;52.150;4.466;2023-03-02T01:31:03;102582.41;;;2.64;100.00
66273;BME280;58450;52.150;4.466;2023-03-02T01:33:32;102581.66;;;2.62;100.00
66273;BME280;58450;52.150;4.466;2023-03-02T01:36:00;102575.47;;;2.61;100.00
66273;BME280;58450;52.150;4.466;2023-03-02T01:38:27;102572.03;;;2.59;100.00
66273;BME280;58450;52.150;4.466;2023-03-02T01:40:55;102573.94;;;2.57;100.00
66273;BME280;58450;52.150;4.466;2023-03-02T01:43:23;102572.03;;;2.59;100.00
66273;BME280;58450;52.150;4.466;2023-03-02T01:45:52;102573.75;;;2.60;100.00
66273;BME280;58450;52.150;4.466;2023-03-02T01:48:26;102573.75;;;2.60;100.00
66273;BME280;58450;52.150;4.466;2023-03-02T01:50:57;102564.16;;;2.58;100.00
66273;BME280;58450;52.150;4.466;2023-03-02T01:53:28;102572.22;;;2.56;100.00
66273;BME280;58450;52.150;4.466;2023-03-02T01:56:00;102564.72;;;2.48;100.00
66273;BME280;58450;52.150;4.466;2023-03-02T01:58:31;102557.94;;;2.43;100.00
66273;BME280;58450;52.150;4.466;2023-03-02T02:01:03;102554.81;;;2.36;100.00
66273;BME280;58450;52.150;4.466;2023-03-02T02:03:31;102556.00;;;2.30;100.00
66273;BME280;58450;52.150;4.466;2023-03-02T02:06:07;102552.00;;;2.23;100.00
66273;BME280;58450;52.150;4.466;2023-03-02T02:08:43;102549.63;;;2.18;100.00
66273;BME280;58450;52.150;4.466;2023-03-02T02:11:12;102547.44;;;2.11;100.00
66273;BME280;58450;52.150;4.466;2023-03-02T02:13:41;102550.34;;;2.06;100.00
66273;BME280;58450;52.150;4.466;2023-03-02T02:16:10;102549.84;;;1.99;100.00
66273;BME280;58450;52.150;4.466;2023-03-02T02:18:39;102551.91;;;1.94;100.00
66273;BME280;58450;52.150;4.466;2023-03-02T02:21:09;102546.59;;;1.94;100.00
66273;BME280;58450;52.150;4.466;2023-03-02T02:23:40;102546.66;;;1.92;100.00
66273;BME280;58450;52.150;4.466;2023-03-02T02:26:19;102545.06;;;1.90;100.00
66273;BME280;58450;52.150;4.466;2023-03-02T02:28:54;102539.16;;;1.85;100.00
66273;BME280;58450;52.150;4.466;2023-03-02T02:31:32;102533.16;;;1.81;100.00
66273;BME280;58450;52.150;4.466;2023-03-02T02:34:07;102538.47;;;1.81;100.00
66273;BME280;58450;52.150;4.466;2023-03-02T02:36:41;102534.38;;;1.75;100.00
66273;BME280;58450;52.150;4.466;2023-03-02T02:39:16;102534.19;;;1.79;100.00
66273;BME280;58450;52.150;4.466;2023-03-02T02:41:51;102529.84;;;1.77;100.00
66273;BME280;58450;52.150;4.466;2023-03-02T02:44:22;102531.53;;;1.79;100.00
66273;BME280;58450;52.150;4.466;2023-03-02T02:46:50;102523.75;;;1.75;100.00
66273;BME280;58450;52.150;4.466;2023-03-02T02:49:29;102529.06;;;1.75;100.00
66273;BME280;58450;52.150;4.466;2023-03-02T02:52:00;102526.75;;;1.69;100.00
66273;BME280;58450;52.150;4.466;2023-03-02T02:54:30;102528.47;;;1.70;100.00
66273;BME280;58450;52.150;4.466;2023-03-02T02:57:02;102519.75;;;1.68;100.00
66273;BME280;58450;52.150;4.466;2023-03-02T02:59:34;102521.56;;;1.68;100.00
66273;BME280;58450;52.150;4.466;2023-03-02T03:02:05;102513.66;;;1.66;100.00
66273;BME280;58450;52.150;4.466;2023-03-02T03:04:33;102517.94;;;1.69;100.00
66273;BME280;58450;52.150;4.466;2023-03-02T03:07:02;102513.66;;;1.66;100.00
66273;BME280;58450;52.150;4.466;2023-03-02T03:09:31;102518.13;;;1.66;100.00
66273;BME280;58450;52.150;4.466;2023-03-02T03:12:05;102518.13;;;1.66;100.00
66273;BME280;58450;52.150;4.466;2023-03-02T03:14:42;102516.31;;;1.66;100.00
66273;BME280;58450;52.150;4.466;2023-03-02T03:17:10;102519.06;;;1.65;100.00
66273;BME280;58450;52.150;4.466;2023-03-02T03:19:40;102516.47;;;1.63;100.00
66273;BME280;58450;52.150;4.466;2023-03-02T03:22:11;102503.22;;;1.63;100.00
66273;BME280;58450;52.150;4.466;2023-03-02T03:24:40;102504.25;;;1.60;100.00
66273;BME280;58450;52.150;4.466;2023-03-02T03:27:13;102506.75;;;1.64;100.00
66273;BME280;58450;52.150;4.466;2023-03-02T03:29:43;102514.69;;;1.64;100.00
66273;BME280;58450;52.150;4.466;2023-03-02T03:32:13;102506.81;;;1.62;100.00
66273;BME280;58450;52.150;4.466;2023-03-02T03:34:41;102512.22;;;1.60;100.00
66273;BME280;58450;52.150;4.466;2023-03-02T03:37:11;102496.38;;;1.59;100.00
66273;BME280;58450;52.150;4.466;2023-03-02T03:39:41;102500.75;;;1.60;100.00
66273;BME280;58450;52.150;4.466;2023-03-02T03:42:10;102495.44;;;1.60;100.00
66273;BME280;58450;52.150;4.466;2023-03-02T03:44:38;102499.78;;;1.61;100.00
66273;BME280;58450;52.150;4.466;2023-03-02T03:47:06;102496.31;;;1.60;100.00
66273;BME280;58450;52.150;4.466;2023-03-02T03:49:33;102507.75;;;1.61;100.00
66273;BME280;58450;52.150;4.466;2023-03-02T03:52:01;102507.69;;;1.62;100.00
66273;BME280;58450;52.150;4.466;2023-03-02T03:54:29;102509.28;;;1.65;100.00
66273;BME280;58450;52.150;4.466;2023-03-02T03:56:57;102511.88;;;1.67;100.00
66273;BME280;58450;52.150;4.466;2023-03-02T03:59:28;102511.94;;;1.65;100.00
66273;BME280;58450;52.150;4.466;2023-03-02T04:01:58;102506.75;;;1.64;100.00
66273;BME280;58450;52.150;4.466;2023-03-02T04:04:30;102510.41;;;1.61;100.00
66273;BME280;58450;52.150;4.466;2023-03-02T04:06:59;102513.94;;;1.61;100.00
66273;BME280;58450;52.150;4.466;2023-03-02T04:09:27;102513.06;;;1.61;100.00
66273;BME280;58450;52.150;4.466;2023-03-02T04:11:57;102519.25;;;1.61;100.00
66273;BME280;58450;52.150;4.466;2023-03-02T04:14:24;102508.53;;;1.63;100.00
66273;BME280;58450;52.150;4.466;2023-03-02T04:16:53;102514.09;;;1.58;100.00
66273;BME280;58450;52.150;4.466;2023-03-02T04:19:21;102514.78;;;1.62;100.00
66273;BME280;58450;52.150;4.466;2023-03-02T04:21:52;102509.47;;;1.62;100.00
66273;BME280;58450;52.150;4.466;2023-03-02T04:24:21;102509.63;;;1.59;100.00
66273;BME280;58450;52.150;4.466;2023-03-02T04:26:50;102510.84;;;1.53;100.00
66273;BME280;58450;52.150;4.466;2023-03-02T04:29:18;102510.16;;;1.50;100.00
66273;BME280;58450;52.150;4.466;2023-03-02T04:31:47;102515.56;;;1.48;100.00
66273;BME280;58450;52.150;4.466;2023-03-02T04:34:15;102518.47;;;1.43;100.00
66273;BME280;58450;52.150;4.466;2023-03-02T04:36:43;102516.69;;;1.44;100.00
66273;BME280;58450;52.150;4.466;2023-03-02T04:39:13;102512.47;;;1.40;100.00
66273;BME280;58450;52.150;4.466;2023-03-02T04:41:42;102512.38;;;1.41;100.00
66273;BME280;58450;52.150;4.466;2023-03-02T04:44:11;102511.38;;;1.44;100.00
66273;BME280;58450;52.150;4.466;2023-03-02T04:46:40;102511.38;;;1.44;100.00
66273;BME280;58450;52.150;4.466;2023-03-02T04:49:09;102504.09;;;1.47;100.00
66273;BME280;58450;52.150;4.466;2023-03-02T04:51:40;102511.38;;;1.44;100.00
66273;BME280;58450;52.150;4.466;2023-03-02T04:54:12;102504.53;;;1.40;100.00
66273;BME280;58450;52.150;4.466;2023-03-02T04:56:43;102505.47;;;1.39;100.00
66273;BME280;58450;52.150;4.466;2023-03-02T04:59:13;102506.31;;;1.39;100.00
66273;BME280;58450;52.150;4.466;2023-03-02T05:01:40;102510.84;;;1.37;100.00
66273;BME280;58450;52.150;4.466;2023-03-02T05:04:10;102508.19;;;1.37;100.00
66273;BME280;58450;52.150;4.466;2023-03-02T05:06:38;102502.09;;;1.35;100.00
66273;BME280;58450;52.150;4.466;2023-03-02T05:09:06;102510.34;;;1.30;100.00
66273;BME280;58450;52.150;4.466;2023-03-02T05:11:34;102503.16;;;1.32;100.00
66273;BME280;58450;52.150;4.466;2023-03-02T05:14:04;102500.75;;;1.28;100.00
66273;BME280;58450;52.150;4.466;2023-03-02T05:16:35;102511.38;;;1.28;100.00
66273;BME280;58450;52.150;4.466;2023-03-02T05:19:06;102505.97;;;1.29;100.00
66273;BME280;58450;52.150;4.466;2023-03-02T05:21:36;102502.66;;;1.26;100.00
66273;BME280;58450;52.150;4.466;2023-03-02T05:24:05;102503.31;;;1.29;100.00
66273;BME280;58450;52.150;4.466;2023-03-02T05:26:33;102493.75;;;1.27;100.00
66273;BME280;58450;52.150;4.466;2023-03-02T05:29:00;102507.84;;;1.27;100.00
66273;BME280;58450;52.150;4.466;2023-03-02T05:31:30;102510.44;;;1.29;100.00
66273;BME280;58450;52.150;4.466;2023-03-02T05:34:01;102498.19;;;1.26;100.00
66273;BME280;58450;52.150;4.466;2023-03-02T05:36:29;102504.53;;;1.24;100.00
66273;BME280;58450;52.150;4.466;2023-03-02T05:38:58;102504.53;;;1.24;100.00
66273;BME280;58450;52.150;4.466;2023-03-02T05:41:26;102497.34;;;1.26;100.00
66273;BME280;58450;52.150;4.466;2023-03-02T05:43:54;102500.00;;;1.26;100.00
66273;BME280;58450;52.150;4.466;2023-03-02T05:46:21;102502.66;;;1.26;100.00
66273;BME280;58450;52.150;4.466;2023-03-02T05:48:49;102497.41;;;1.24;100.00
66273;BME280;58450;52.150;4.466;2023-03-02T05:51:16;102497.34;;;1.26;100.00
66273;BME280;58450;52.150;4.466;2023-03-02T05:53:44;102499.13;;;1.25;100.00
66273;BME280;58450;52.150;4.466;2023-03-02T05:56:13;102503.50;;;1.26;100.00
66273;BME280;58450;52.150;4.466;2023-03-02T05:58:40;102495.69;;;1.23;100.00
66273;BME280;58450;52.150;4.466;2023-03-02T06:01:09;102501.88;;;1.24;100.00
66273;BME280;58450;52.150;4.466;2023-03-02T06:03:37;102505.38;;;1.24;100.00
66273;BME280;58450;52.150;4.466;2023-03-02T06:06:05;102510.94;;;1.20;100.00
66273;BME280;58450;52.150;4.466;2023-03-02T06:08:32;102510.78;;;1.23;100.00
66273;BME280;58450;52.150;4.466;2023-03-02T06:11:00;102516.16;;;1.21;100.00
66273;BME280;58450;52.150;4.466;2023-03-02T06:13:28;102510.06;;;1.19;100.00
66273;BME280;58450;52.150;4.466;2023-03-02T06:15:56;102520.59;;;1.21;100.00
66273;BME280;58450;52.150;4.466;2023-03-02T06:18:23;102513.44;;;1.23;100.00
66273;BME280;58450;52.150;4.466;2023-03-02T06:20:51;102522.31;;;1.22;100.00
66273;BME280;58450;52.150;4.466;2023-03-02T06:23:18;102521.56;;;1.20;100.00
66273;BME280;58450;52.150;4.466;2023-03-02T06:25:46;102518.97;;;1.18;100.00
66273;BME280;58450;52.150;4.466;2023-03-02T06:28:14;102520.00;;;1.15;100.00
66273;BME280;58450;52.150;4.466;2023-03-02T06:30:43;102528.78;;;1.16;100.00
66273;BME280;58450;52.150;4.466;2023-03-02T06:33:10;102535.91;;;1.15;100.00
66273;BME280;58450;52.150;4.466;2023-03-02T06:35:38;102530.44;;;1.18;100.00
66273;BME280;58450;52.150;4.466;2023-03-02T06:38:05;102533.94;;;1.19;100.00
66273;BME280;58450;52.150;4.466;2023-03-02T06:40:33;102528.47;;;1.22;100.00
66273;BME280;58450;52.150;4.466;2023-03-02T06:43:00;102531.06;;;1.24;100.00
66273;BME280;58450;52.150;4.466;2023-03-02T06:45:28;102534.53;;;1.24;100.00
66273;BME280;58450;52.150;4.466;2023-03-02T06:48:00;102537.03;;;1.27;100.00
66273;BME280;58450;52.150;4.466;2023-03-02T06:50:28;102543.78;;;1.33;100.00
66273;BME280;58450;52.150;4.466;2023-03-02T06:52:56;102542.66;;;1.37;100.00
66273;BME280;58450;52.150;4.466;2023-03-02T06:55:24;102538.75;;;1.44;100.00
66273;BME280;58450;52.150;4.466;2023-03-02T06:57:52;102540.44;;;1.45;100.00
66273;BME280;58450;52.150;4.466;2023-03-02T07:00:21;102546.47;;;1.49;100.00
66273;BME280;58450;52.150;4.466;2023-03-02T07:02:53;102546.19;;;1.54;100.00
66273;BME280;58450;52.150;4.466;2023-03-02T07:05:23;102551.09;;;1.61;100.00
66273;BME280;58450;52.150;4.466;2023-03-02T07:07:51;102544.38;;;1.70;100.00
66273;BME280;58450;52.150;4.466;2023-03-02T07:10:18;102547.75;;;1.74;100.00
66273;BME280;58450;52.150;4.466;2023-03-02T07:12:46;102548.06;;;1.84;100.00
66273;BME280;58450;52.150;4.466;2023-03-02T07:15:14;102549.50;;;1.89;100.00
66273;BME280;58450;52.150;4.466;2023-03-02T07:17:43;102548.22;;;1.97;100.00
66273;BME280;58450;52.150;4.466;2023-03-02T07:20:13;102548.09;;;2.14;100.00
66273;BME280;58450;52.150;4.466;2023-03-02T07:22:43;102546.53;;;2.41;100.00
66273;BME280;58450;52.150;4.466;2023-03-02T07:25:11;102552.28;;;2.63;100.00
66273;BME280;58450;52.150;4.466;2023-03-02T07:27:39;102542.44;;;2.80;100.00
66273;BME280;58450;52.150;4.466;2023-03-02T07:30:08;102538.91;;;2.79;100.00
66273;BME280;58450;52.150;4.466;2023-03-02T07:32:37;102531.81;;;2.80;100.00
66273;BME280;58450;52.150;4.466;2023-03-02T07:35:05;102550.31;;;2.81;100.00
66273;BME280;58450;52.150;4.466;2023-03-02T07:37:33;102538.25;;;3.19;100.00
66273;BME280;58450;52.150;4.466;2023-03-02T07:40:02;102537.94;;;3.53;100.00
66273;BME280;58450;52.150;4.466;2023-03-02T07:42:29;102529.84;;;3.82;100.00
66273;BME280;58450;52.150;4.466;2023-03-02T07:44:57;102532.44;;;3.96;100.00
66273;BME280;58450;52.150;4.466;2023-03-02T07:47:25;102541.91;;;4.28;100.00
66273;BME280;58450;52.150;4.466;2023-03-02T07:49:52;102539.91;;;4.57;100.00
66273;BME280;58450;52.150;4.466;2023-03-02T07:52:20;102536.09;;;4.75;100.00
66273;BME280;58450;52.150;4.466;2023-03-02T07:54:47;102535.53;;;5.08;100.00
66273;BME280;58450;52.150;4.466;2023-03-02T07:57:16;102539.06;;;5.46;100.00
66273;BME280;58450;52.150;4.466;2023-03-02T07:59:44;102540.13;;;6.05;100.00
66273;BME280;58450;52.150;4.466;2023-03-02T08:02:13;102539.47;;;6.73;100.00
66273;BME280;58450;52.150;4.466;2023-03-02T08:04:43;102533.44;;;7.60;100.00
66273;BME280;58450;52.150;4.466;2023-03-02T08:07:10;102531.81;;;8.34;100.00
66273;BME280;58450;52.150;4.466;2023-03-02T08:09:38;102531.44;;;9.22;100.00
66273;BME280;58450;52.150;4.466;2023-03-02T08:12:05;102528.84;;;9.71;100.00
66273;BME280;58450;52.150;4.466;2023-03-02T08:14:34;102526.84;;;10.32;100.00
66273;BME280;58450;52.150;4.466;2023-03-02T08:17:04;102533.22;;;10.51;100.00
66273;BME280;58450;52.150;4.466;2023-03-02T08:19:32;102538.81;;;10.87;100.00
66273;BME280;58450;52.150;4.466;2023-03-02T08:22:00;102524.84;;;11.30;100.00
66273;BME280;58450;52.150;4.466;2023-03-02T08:24:28;102530.81;;;11.23;100.00
66273;BME280;58450;52.150;4.466;2023-03-02T08:26:59;102531.13;;;11.48;98.39
66273;BME280;58450;52.150;4.466;2023-03-02T08:29:27;102528.63;;;11.37;93.25
66273;BME280;58450;52.150;4.466;2023-03-02T08:31:56;102526.53;;;11.59;93.02
66273;BME280;58450;52.150;4.466;2023-03-02T08:34:24;102530.56;;;12.09;93.01
66273;BME280;58450;52.150;4.466;2023-03-02T08:36:52;102530.50;;;12.45;87.36
66273;BME280;58450;52.150;4.466;2023-03-02T08:39:20;102526.47;;;12.49;85.61
66273;BME280;58450;52.150;4.466;2023-03-02T08:41:49;102528.00;;;12.78;82.00
66273;BME280;58450;52.150;4.466;2023-03-02T08:44:16;102524.50;;;13.21;75.35
66273;BME280;58450;52.150;4.466;2023-03-02T08:46:45;102521.88;;;13.03;75.25
66273;BME280;58450;52.150;4.466;2023-03-02T08:49:15;102522.47;;;13.23;74.07
66273;BME280;58450;52.150;4.466;2023-03-02T08:51:44;102522.63;;;13.72;72.32
66273;BME280;58450;52.150;4.466;2023-03-02T08:54:12;102521.13;;;14.11;67.45
66273;BME280;58450;52.150;4.466;2023-03-02T08:56:40;102520.25;;;13.78;65.44
66273;BME280;58450;52.150;4.466;2023-03-02T08:59:11;102528.91;;;14.31;63.42
66273;BME280;58450;52.150;4.466;2023-03-02T09:01:40;102533.28;;;14.48;61.02
66273;BME280;58450;52.150;4.466;2023-03-02T09:04:09;102531.75;;;14.54;60.48
66273;BME280;58450;52.150;4.466;2023-03-02T09:06:39;102515.47;;;14.62;59.85
66273;BME280;58450;52.150;4.466;2023-03-02T09:09:10;102512.28;;;14.51;57.63
66273;BME280;58450;52.150;4.466;2023-03-02T09:11:40;102512.06;;;14.85;55.55
66273;BME280;58450;52.150;4.466;2023-03-02T09:14:08;102508.25;;;14.22;53.44
66273;BME280;58450;52.150;4.466;2023-03-02T09:16:36;102508.84;;;14.73;53.84
66273;BME280;58450;52.150;4.466;2023-03-02T09:19:03;102516.03;;;14.33;54.22
66273;BME280;58450;52.150;4.466;2023-03-02T09:21:31;102513.41;;;14.89;53.28
66273;BME280;58450;52.150;4.466;2023-03-02T09:24:00;102506.94;;;15.30;50.79
66273;BME280;58450;52.150;4.466;2023-03-02T09:26:27;102511.78;;;15.12;51.12
66273;BME280;58450;52.150;4.466;2023-03-02T09:28:55;102499.34;;;15.49;50.79
66273;BME280;58450;52.150;4.466;2023-03-02T09:31:23;102508.72;;;15.46;49.36
66273;BME280;58450;52.150;4.466;2023-03-02T09:33:50;102514.94;;;15.24;48.94
66273;BME280;58450;52.150;4.466;2023-03-02T09:36:20;102511.69;;;15.28;46.90
66273;BME280;58450;52.150;4.466;2023-03-02T09:38:49;102509.50;;;15.55;48.46
66273;BME280;58450;52.150;4.466;2023-03-02T09:44:54;102515.91;;;15.86;48.32
66273;BME280;58450;52.150;4.466;2023-03-02T09:47:35;102521.50;;;15.84;47.73
66273;BME280;58450;52.150;4.466;2023-03-02T09:50:27;102519.66;;;16.08;47.95
66273;BME280;58450;52.150;4.466;2023-03-02T09:53:23;102524.09;;;16.24;47.25
66273;BME280;58450;52.150;4.466;2023-03-02T09:56:00;102513.56;;;16.59;46.43
66273;BME280;58450;52.150;4.466;2023-03-02T09:58:34;102511.22;;;16.71;45.80
66273;BME280;58450;52.150;4.466;2023-03-02T10:01:11;102509.34;;;16.42;45.72
66273;BME280;58450;52.150;4.466;2023-03-02T10:03:47;102502.88;;;16.28;44.85
66273;BME280;58450;52.150;4.466;2023-03-02T10:06:22;102507.03;;;15.92;46.44
66273;BME280;58450;52.150;4.466;2023-03-02T10:08:49;102502.47;;;15.92;45.92
66273;BME280;58450;52.150;4.466;2023-03-02T10:11:21;102510.69;;;15.29;47.46
66273;BME280;58450;52.150;4.466;2023-03-02T10:14:01;102508.50;;;14.68;48.74
66273;BME280;58450;52.150;4.466;2023-03-02T10:16:43;102520.00;;;14.87;50.00
66273;BME280;58450;52.150;4.466;2023-03-02T10:19:19;102510.28;;;15.41;49.05
66273;BME280;58450;52.150;4.466;2023-03-02T10:21:57;102510.16;;;15.26;48.80
66273;BME280;58450;52.150;4.466;2023-03-02T10:24:37;102506.16;;;14.73;48.78
66273;BME280;58450;52.150;4.466;2023-03-02T10:27:15;102511.00;;;15.58;50.26
66273;BME280;58450;52.150;4.466;2023-03-02T10:29:47;102504.97;;;15.47;48.29
66273;BME280;58450;52.150;4.466;2023-03-02T10:32:24;102509.53;;;15.47;49.19
66273;BME280;58450;52.150;4.466;2023-03-02T10:34:57;102511.44;;;15.93;49.64
66273;BME280;58450;52.150;4.466;2023-03-02T10:37:36;102503.66;;;16.13;48.62
66273;BME280;58450;52.150;4.466;2023-03-02T10:40:04;102500.66;;;16.08;48.63
66273;BME280;58450;52.150;4.466;2023-03-02T10:42:35;102500.50;;;16.24;47.84
66273;BME280;58450;52.150;4.466;2023-03-02T10:45:23;102495.91;;;15.87;47.47
66273;BME280;58450;52.150;4.466;2023-03-02T10:48:03;102494.56;;;15.83;47.66
66273;BME280;58450;52.150;4.466;2023-03-02T10:50:32;102505.28;;;15.76;48.53
66273;BME280;58450;52.150;4.466;2023-03-02T10:53:00;102493.25;;;15.78;48.85
66273;BME280;58450;52.150;4.466;2023-03-02T10:55:28;102496.97;;;15.77;48.39
66273;BME280;58450;52.150;4.466;2023-03-02T10:58:02;102494.19;;;15.86;48.03
66273;BME280;58450;52.150;4.466;2023-03-02T11:00:33;102487.97;;;16.00;48.18
66273;BME280;58450;52.150;4.466;2023-03-02T11:03:16;102489.78;;;15.85;48.50
66273;BME280;58450;52.150;4.466;2023-03-02T11:05:48;102492.94;;;15.97;48.72
66273;BME280;58450;52.150;4.466;2023-03-02T11:08:17;102490.63;;;16.08;48.74
66273;BME280;58450;52.150;4.466;2023-03-02T11:10:52;102484.25;;;15.23;48.34
66273;BME280;58450;52.150;4.466;2023-03-02T11:13:24;102489.25;;;15.43;49.18
66273;BME280;58450;52.150;4.466;2023-03-02T11:15:55;102494.19;;;15.62;49.66
66273;BME280;58450;52.150;4.466;2023-03-02T11:18:28;102489.59;;;15.40;49.80
66273;BME280;58450;52.150;4.466;2023-03-02T11:21:04;102487.94;;;14.26;49.92
66273;BME280;58450;52.150;4.466;2023-03-02T11:23:39;102485.78;;;14.04;52.25
66273;BME280;58450;52.150;4.466;2023-03-02T11:26:22;102486.41;;;14.15;52.90
66273;BME280;58450;52.150;4.466;2023-03-02T11:28:58;102488.97;;;14.25;52.83
66273;BME280;58450;52.150;4.466;2023-03-02T11:31:33;102477.78;;;13.70;53.61
66273;BME280;58450;52.150;4.466;2023-03-02T11:34:28;102485.22;;;13.43;54.81
66273;BME280;58450;52.150;4.466;2023-03-02T11:37:05;102488.97;;;13.67;55.61
66273;BME280;58450;52.150;4.466;2023-03-02T11:39:54;102492.16;;;13.11;55.89
66273;BME280;58450;52.150;4.466;2023-03-02T11:42:32;102490.13;;;13.05;58.31
66273;BME280;58450;52.150;4.466;2023-03-02T11:45:13;102483.88;;;13.04;58.31
66273;BME280;58450;52.150;4.466;2023-03-02T11:47:47;102488.72;;;12.57;59.99
66273;BME280;58450;52.150;4.466;2023-03-02T11:50:20;102486.09;;;12.39;61.17
66273;BME280;58450;52.150;4.466;2023-03-02T11:52:51;102488.53;;;11.88;63.05
66273;BME280;58450;52.150;4.466;2023-03-02T11:55:25;102484.84;;;11.71;65.23
66273;BME280;58450;52.150;4.466;2023-03-02T11:57:57;102483.66;;;11.37;66.02
66273;BME280;58450;52.150;4.466;2023-03-02T12:00:30;102480.88;;;11.29;67.78
66273;BME280;58450;52.150;4.466;2023-03-02T12:03:02;102474.38;;;11.68;70.10
66273;BME280;58450;52.150;4.466;2023-03-02T12:05:34;102477.63;;;11.26;75.39
66273;BME280;58450;52.150;4.466;2023-03-02T12:08:06;102478.28;;;10.82;81.46
66273;BME280;58450;52.150;4.466;2023-03-02T12:10:58;102469.78;;;10.86;83.20
66273;BME280;58450;52.150;4.466;2023-03-02T12:13:34;102463.94;;;10.91;85.21
66273;BME280;58450;52.150;4.466;2023-03-02T12:16:15;102464.31;;;11.24;83.32
66273;BME280;58450;52.150;4.466;2023-03-02T12:18:47;102459.84;;;11.51;81.26
66273;BME280;58450;52.150;4.466;2023-03-02T12:21:17;102463.56;;;11.86;78.43
66273;BME280;58450;52.150;4.466;2023-03-02T12:23:58;102460.22;;;12.10;79.53
66273;BME280;58450;52.150;4.466;2023-03-02T12:26:33;102462.28;;;12.35;75.39
66273;BME280;58450;52.150;4.466;2023-03-02T12:29:06;102455.50;;;12.31;75.48
66273;BME280;58450;52.150;4.466;2023-03-02T12:31:51;102463.78;;;12.37;74.27
66273;BME280;58450;52.150;4.466;2023-03-02T12:34:32;102454.56;;;12.83;72.39
66273;BME280;58450;52.150;4.466;2023-03-02T12:37:12;102454.84;;;13.06;70.04
66273;BME280;58450;52.150;4.466;2023-03-02T12:43:25;102449.06;;;13.69;62.75
66273;BME280;58450;52.150;4.466;2023-03-02T12:46:26;102455.81;;;13.73;60.74
66273;BME280;58450;52.150;4.466;2023-03-02T12:49:16;102446.34;;;14.02;60.43
66273;BME280;58450;52.150;4.466;2023-03-02T12:51:56;102452.13;;;14.63;59.86
66273;BME280;58450;52.150;4.466;2023-03-02T12:54:27;102443.81;;;14.65;58.54
66273;BME280;58450;52.150;4.466;2023-03-02T12:57:04;102437.97;;;14.93;57.57
66273;BME280;58450;52.150;4.466;2023-03-02T12:59:35;102451.00;;;14.50;57.43
66273;BME280;58450;52.150;4.466;2023-03-02T13:02:06;102439.59;;;15.57;56.90
66273;BME280;58450;52.150;4.466;2023-03-02T13:04:40;102444.66;;;16.67;53.32
66273;BME280;58450;52.150;4.466;2023-03-02T13:07:14;102433.25;;;17.23;51.11
66273;BME280;58450;52.150;4.466;2023-03-02T13:09:43;102431.91;;;17.56;49.14
66273;BME280;58450;52.150;4.466;2023-03-02T13:12:14;102420.38;;;17.82;48.58
66273;BME280;58450;52.150;4.466;2023-03-02T13:14:46;102423.75;;;17.84;47.16
66273;BME280;58450;52.150;4.466;2023-03-02T13:17:21;102419.47;;;18.60;46.53